Time;durP1;ratioP1;P1;durP2;ratioP2;P2;SDS_P1;SDS_P2;PMS_P1;PMS_P2;Temp;Humidity;BMP_temperature;BMP_pressure;BME280_temperature;BME280_humidity;BME280_pressure;Samples;Min_cycle;Max_cycle;Signal;HPM_P1;HPM_P2
2023/10/22 00:00:39;;;;;;;9.60;6.13;;;;;;;;;;4997264;28;20104;-39
2023/10/22 00:03:04;;;;;;;9.68;5.20;;;;;;;;;;5003388;28;20033;-40
2023/10/22 00:05:29;;;;;;;10.67;6.63;;;;;;;;;;5002927;28;20124;-41
2023/10/22 00:07:54;;;;;;;39.80;19.03;;;;;;;;;;5008248;28;20290;-40
2023/10/22 00:10:20;;;;;;;12.73;6.70;;;;;;;;;;5002593;28;20280;-38
2023/10/22 00:12:45;;;;;;;12.25;5.93;;;;;;;;;;5006449;28;20268;-40
2023/10/22 00:15:10;;;;;;;12.23;5.73;;;;;;;;;;5000494;28;20400;-40
2023/10/22 00:17:35;;;;;;;9.60;5.10;;;;;;;;;;4997168;28;20284;-40
2023/10/22 00:20:01;;;;;;;11.67;5.40;;;;;;;;;;5003822;28;20782;-39
2023/10/22 00:22:26;;;;;;;9.93;5.30;;;;;;;;;;5010394;28;20040;-40
2023/10/22 00:24:51;;;;;;;9.10;5.07;;;;;;;;;;5002956;28;20272;-41
2023/10/22 00:27:16;;;;;;;11.53;4.97;;;;;;;;;;5007027;28;20030;-40
2023/10/22 00:29:42;;;;;;;10.00;4.90;;;;;;;;;;5003031;28;20293;-40
2023/10/22 00:32:08;;;;;;;7.53;4.55;;;;;;;;;;5002806;28;20268;-40
2023/10/22 00:34:34;;;;;;;9.10;5.57;;;;;;;;;;5002946;28;20400;-40
2023/10/22 00:36:59;;;;;;;12.15;5.88;;;;;;;;;;5000382;28;20488;-40
2023/10/22 00:39:24;;;;;;;14.30;6.05;;;;;;;;;;4989662;28;20041;-40
2023/10/22 00:41:50;;;;;;;9.27;5.78;;;;;;;;;;5004169;28;20026;-40
2023/10/22 00:44:15;;;;;;;10.90;5.45;;;;;;;;;;5002630;28;20030;-39
2023/10/22 00:46:41;;;;;;;7.55;4.45;;;;;;;;;;5001492;28;20037;-40
2023/10/22 00:49:06;;;;;;;9.20;5.13;;;;;;;;;;5004857;28;20452;-39
2023/10/22 00:51:31;;;;;;;10.10;4.80;;;;;;;;;;5002072;28;20034;-39
2023/10/22 00:53:57;;;;;;;6.72;4.40;;;;;;;;;;5004140;28;20300;-40
2023/10/22 00:56:23;;;;;;;5.07;3.03;;;;;;;;;;4996289;28;20026;-41
2023/10/22 00:58:48;;;;;;;10.82;3.75;;;;;;;;;;5002236;28;20488;-41
2023/10/22 01:01:14;;;;;;;8.75;4.03;;;;;;;;;;4985815;28;20793;-39
2023/10/22 01:03:39;;;;;;;5.57;4.03;;;;;;;;;;5002085;28;20025;-40
2023/10/22 01:06:05;;;;;;;7.38;4.15;;;;;;;;;;5000929;28;21177;-40
2023/10/22 01:08:34;;;;;;;8.05;4.35;;;;;;;;;;4996385;28;20028;-40
2023/10/22 01:11:09;;;;;;;5.25;3.92;;;;;;;;;;4998419;28;20030;-39
2023/10/22 01:13:34;;;;;;;7.25;4.45;;;;;;;;;;4999611;28;20030;-39
2023/10/22 01:16:00;;;;;;;8.35;4.18;;;;;;;;;;4981380;28;20106;-39
2023/10/22 01:18:25;;;;;;;8.37;4.97;;;;;;;;;;5002180;28;20030;-39
2023/10/22 01:20:50;;;;;;;9.53;5.07;;;;;;;;;;5001938;28;20276;-39
2023/10/22 01:23:16;;;;;;;7.68;4.47;;;;;;;;;;5004313;28;20257;-39
2023/10/22 01:25:41;;;;;;;6.63;3.70;;;;;;;;;;5001888;28;20025;-39
2023/10/22 01:28:06;;;;;;;8.35;3.70;;;;;;;;;;4979293;28;20030;-39
2023/10/22 01:30:31;;;;;;;9.35;4.88;;;;;;;;;;4995827;28;20084;-38
2023/10/22 01:32:57;;;;;;;5.93;3.87;;;;;;;;;;5001806;28;20397;-39
2023/10/22 01:35:22;;;;;;;5.90;3.70;;;;;;;;;;5002076;28;20284;-39
2023/10/22 01:37:47;;;;;;;6.07;4.00;;;;;;;;;;5002781;28;20269;-40
2023/10/22 01:40:13;;;;;;;5.03;3.92;;;;;;;;;;5000953;28;20201;-39
2023/10/22 01:42:38;;;;;;;6.15;3.47;;;;;;;;;;5001242;28;20033;-39
2023/10/22 01:45:06;;;;;;;7.93;3.17;;;;;;;;;;5001581;28;20029;-41
2023/10/22 01:47:31;;;;;;;5.47;3.70;;;;;;;;;;4998516;28;20691;-39
2023/10/22 01:49:57;;;;;;;7.15;3.92;;;;;;;;;;4997644;28;20029;-39
2023/10/22 01:52:23;;;;;;;5.57;3.58;;;;;;;;;;4999955;28;20056;-39
2023/10/22 01:54:49;;;;;;;6.43;3.83;;;;;;;;;;5001309;28;20022;-39
2023/10/22 01:57:15;;;;;;;8.82;4.15;;;;;;;;;;5003603;28;20030;-40
2023/10/22 01:59:41;;;;;;;6.22;3.60;;;;;;;;;;4999892;28;20412;-39
2023/10/22 02:02:07;;;;;;;6.88;4.18;;;;;;;;;;5002627;28;20514;-40
2023/10/22 02:04:33;;;;;;;7.10;3.67;;;;;;;;;;5004343;28;20038;-39
2023/10/22 02:06:58;;;;;;;5.10;3.28;;;;;;;;;;4996449;28;20030;-39
2023/10/22 02:09:24;;;;;;;6.13;3.67;;;;;;;;;;4999918;28;20022;-39
2023/10/22 02:11:50;;;;;;;7.55;4.13;;;;;;;;;;4995686;28;20124;-40
2023/10/22 02:14:15;;;;;;;9.10;4.00;;;;;;;;;;5004577;28;20037;-39
2023/10/22 02:16:41;;;;;;;5.80;3.80;;;;;;;;;;5002144;28;20034;-41
2023/10/22 02:19:06;;;;;;;4.80;3.33;;;;;;;;;;5003827;28;20026;-39
2023/10/22 02:21:32;;;;;;;5.70;3.65;;;;;;;;;;5006539;28;20342;-40
2023/10/22 02:23:57;;;;;;;8.82;4.40;;;;;;;;;;5005994;28;20048;-39
2023/10/22 02:26:23;;;;;;;7.88;4.05;;;;;;;;;;4998708;28;20057;-39
2023/10/22 02:28:48;;;;;;;6.32;4.18;;;;;;;;;;5004482;28;20046;-39
2023/10/22 02:31:13;;;;;;;5.70;3.72;;;;;;;;;;5005297;28;20025;-40
2023/10/22 02:33:39;;;;;;;7.27;3.50;;;;;;;;;;5004054;28;20030;-38
2023/10/22 02:36:06;;;;;;;7.90;4.10;;;;;;;;;;5004383;28;20707;-40
2023/10/22 02:38:32;;;;;;;5.80;3.95;;;;;;;;;;5008329;28;21489;-39
2023/10/22 02:40:57;;;;;;;7.40;4.57;;;;;;;;;;5005403;28;20033;-40
2023/10/22 02:43:22;;;;;;;12.03;6.07;;;;;;;;;;4999200;28;20037;-39
2023/10/22 02:45:51;;;;;;;6.57;4.43;;;;;;;;;;4983391;28;20689;-40
2023/10/22 02:48:16;;;;;;;7.10;3.85;;;;;;;;;;5004066;28;20279;-40
2023/10/22 02:50:42;;;;;;;5.38;3.42;;;;;;;;;;4999052;28;21158;-41
2023/10/22 02:53:08;;;;;;;9.23;4.95;;;;;;;;;;5003630;28;20033;-41
2023/10/22 02:55:33;;;;;;;7.72;4.57;;;;;;;;;;5004405;28;20018;-40
2023/10/22 02:57:58;;;;;;;6.80;4.73;;;;;;;;;;5002531;28;20018;-39
2023/10/22 03:00:23;;;;;;;8.93;4.30;;;;;;;;;;5002751;28;20286;-40
2023/10/22 03:02:49;;;;;;;6.32;3.97;;;;;;;;;;5005716;28;20273;-39
2023/10/22 03:05:14;;;;;;;7.57;4.00;;;;;;;;;;5001444;28;20041;-40
2023/10/22 03:07:41;;;;;;;5.70;3.87;;;;;;;;;;4986537;28;20611;-39
2023/10/22 03:10:07;;;;;;;7.22;3.50;;;;;;;;;;5002005;28;20273;-40
2023/10/22 03:12:32;;;;;;;5.90;3.90;;;;;;;;;;5008122;28;20036;-40
2023/10/22 03:14:57;;;;;;;5.57;3.65;;;;;;;;;;5005539;28;20042;-38
2023/10/22 03:17:23;;;;;;;8.77;4.38;;;;;;;;;;5006918;28;20026;-40
2023/10/22 03:19:48;;;;;;;7.55;3.60;;;;;;;;;;5000087;28;20053;-39
2023/10/22 03:22:15;;;;;;;5.82;3.70;;;;;;;;;;4988358;28;20033;-39
2023/10/22 03:24:40;;;;;;;7.00;4.07;;;;;;;;;;4998239;28;20018;-38
2023/10/22 03:27:05;;;;;;;8.32;4.00;;;;;;;;;;5003420;28;20491;-40
2023/10/22 03:29:33;;;;;;;7.38;3.83;;;;;;;;;;5004923;28;20037;-39
2023/10/22 03:31:59;;;;;;;6.07;3.50;;;;;;;;;;5002051;28;20036;-39
2023/10/22 03:34:24;;;;;;;5.60;3.92;;;;;;;;;;5004494;28;20038;-40
2023/10/22 03:36:50;;;;;;;6.55;3.88;;;;;;;;;;5006566;28;20052;-39
2023/10/22 03:39:15;;;;;;;5.28;3.58;;;;;;;;;;5002048;28;20987;-39
2023/10/22 03:41:40;;;;;;;6.82;3.90;;;;;;;;;;4998298;28;20018;-38
2023/10/22 03:44:06;;;;;;;6.82;3.90;;;;;;;;;;5001919;28;20025;-40
2023/10/22 03:46:32;;;;;;;6.40;3.03;;;;;;;;;;5008104;28;20025;-42
2023/10/22 03:48:57;;;;;;;5.32;3.28;;;;;;;;;;5006441;28;20030;-38
2023/10/22 03:51:23;;;;;;;7.03;3.40;;;;;;;;;;5006027;28;20049;-40
2023/10/22 03:53:49;;;;;;;6.32;3.15;;;;;;;;;;5006016;28;20026;-39
2023/10/22 03:56:14;;;;;;;5.85;3.13;;;;;;;;;;5004204;28;20030;-39
2023/10/22 03:58:39;;;;;;;7.85;5.22;;;;;;;;;;5003161;28;20018;-39
2023/10/22 04:01:04;;;;;;;6.97;4.83;;;;;;;;;;4994297;28;20049;-39
2023/10/22 04:03:30;;;;;;;9.43;4.03;;;;;;;;;;5005070;28;20340;-40
2023/10/22 04:05:58;;;;;;;9.07;5.40;;;;;;;;;;5002062;28;20796;-39
2023/10/22 04:08:24;;;;;;;6.97;3.72;;;;;;;;;;5008085;28;20770;-40
2023/10/22 04:10:51;;;;;;;7.28;4.03;;;;;;;;;;5001347;28;20026;-39
2023/10/22 04:13:16;;;;;;;6.00;3.80;;;;;;;;;;5011179;28;20076;-38
2023/10/22 04:15:42;;;;;;;8.05;4.40;;;;;;;;;;5002974;28;20026;-39
2023/10/22 04:18:07;;;;;;;8.68;4.70;;;;;;;;;;5001233;28;20105;-38
2023/10/22 04:20:35;;;;;;;10.73;5.38;;;;;;;;;;5000193;28;20041;-40
2023/10/22 04:23:01;;;;;;;7.80;5.70;;;;;;;;;;5003183;28;20049;-39
2023/10/22 04:25:27;;;;;;;10.32;6.05;;;;;;;;;;5001811;28;20037;-40
2023/10/22 04:27:52;;;;;;;12.48;7.45;;;;;;;;;;5003097;28;20045;-40
2023/10/22 04:30:18;;;;;;;10.43;5.83;;;;;;;;;;5003540;28;20025;-39
2023/10/22 04:32:43;;;;;;;11.15;6.57;;;;;;;;;;5005852;28;20724;-39
2023/10/22 04:35:08;;;;;;;10.75;6.15;;;;;;;;;;5003258;28;20034;-41
2023/10/22 04:37:33;;;;;;;14.10;7.00;;;;;;;;;;4996948;28;20036;-39
2023/10/22 04:39:59;;;;;;;9.30;6.30;;;;;;;;;;5001088;28;20030;-39
2023/10/22 04:42:24;;;;;;;11.20;6.22;;;;;;;;;;5006518;28;21093;-39
2023/10/22 04:44:50;;;;;;;16.33;6.90;;;;;;;;;;5002243;28;20056;-39
2023/10/22 04:47:15;;;;;;;12.33;6.63;;;;;;;;;;5003229;28;20085;-40
2023/10/22 04:49:43;;;;;;;9.15;6.13;;;;;;;;;;5003710;28;20277;-40
2023/10/22 04:52:10;;;;;;;8.98;5.70;;;;;;;;;;5004900;28;20496;-39
2023/10/22 04:54:36;;;;;;;9.00;6.05;;;;;;;;;;4999660;28;20408;-39
2023/10/22 04:57:02;;;;;;;9.50;5.50;;;;;;;;;;5005618;28;20026;-40
2023/10/22 04:59:28;;;;;;;11.73;6.80;;;;;;;;;;5003638;28;20080;-40
2023/10/22 05:01:53;;;;;;;9.35;5.43;;;;;;;;;;5002650;28;20112;-41
2023/10/22 05:04:18;;;;;;;9.10;5.40;;;;;;;;;;5003778;28;20029;-40
2023/10/22 05:06:43;;;;;;;8.83;5.53;;;;;;;;;;5002638;28;20395;-39
2023/10/22 05:09:10;;;;;;;10.13;6.10;;;;;;;;;;5000166;28;20767;-39
2023/10/22 05:11:35;;;;;;;11.77;6.30;;;;;;;;;;4999469;28;20276;-39
2023/10/22 05:14:00;;;;;;;15.90;7.93;;;;;;;;;;4998989;28;20080;-39
2023/10/22 05:16:26;;;;;;;13.32;7.68;;;;;;;;;;5002599;28;20033;-39
2023/10/22 05:18:52;;;;;;;12.95;6.30;;;;;;;;;;4995526;28;20066;-39
2023/10/22 05:21:17;;;;;;;8.77;5.18;;;;;;;;;;5003539;28;20049;-39
2023/10/22 05:23:43;;;;;;;8.70;5.30;;;;;;;;;;5002714;28;20423;-41
2023/10/22 05:26:09;;;;;;;12.27;7.10;;;;;;;;;;5001519;28;20038;-40
2023/10/22 05:28:34;;;;;;;11.82;6.90;;;;;;;;;;4998861;28;20108;-39
2023/10/22 05:31:00;;;;;;;16.00;9.00;;;;;;;;;;5001425;28;20615;-40
2023/10/22 05:33:25;;;;;;;14.77;8.38;;;;;;;;;;5003184;28;20038;-40
2023/10/22 05:35:50;;;;;;;9.38;6.03;;;;;;;;;;4998094;28;20538;-40
2023/10/22 05:38:15;;;;;;;12.20;5.90;;;;;;;;;;4994338;28;20030;-39
2023/10/22 05:40:41;;;;;;;9.50;5.43;;;;;;;;;;4983504;28;20333;-41
2023/10/22 05:43:06;;;;;;;12.23;6.27;;;;;;;;;;5002533;28;20280;-40
2023/10/22 05:45:32;;;;;;;15.33;7.93;;;;;;;;;;5001601;28;20339;-39
2023/10/22 05:47:57;;;;;;;14.70;9.10;;;;;;;;;;4999933;28;20363;-40
2023/10/22 05:50:22;;;;;;;11.07;7.72;;;;;;;;;;5007814;28;20025;-41
2023/10/22 05:52:50;;;;;;;15.95;9.95;;;;;;;;;;5003042;28;20109;-40
2023/10/22 05:55:15;;;;;;;16.05;10.05;;;;;;;;;;4990688;28;20033;-39
2023/10/22 05:57:41;;;;;;;16.60;8.75;;;;;;;;;;5005144;28;20075;-40
2023/10/22 06:00:07;;;;;;;11.73;7.07;;;;;;;;;;4996989;28;20026;-39
2023/10/22 06:02:32;;;;;;;12.55;7.95;;;;;;;;;;5004969;28;20265;-40
2023/10/22 06:04:58;;;;;;;9.98;6.13;;;;;;;;;;5002102;28;20779;-39
2023/10/22 06:07:24;;;;;;;10.88;6.22;;;;;;;;;;5012045;28;20146;-39
2023/10/22 06:09:50;;;;;;;8.50;5.85;;;;;;;;;;5003638;28;20037;-39
2023/10/22 06:12:15;;;;;;;8.48;5.65;;;;;;;;;;4998509;28;20064;-40
2023/10/22 06:14:40;;;;;;;10.60;6.15;;;;;;;;;;4997539;28;20033;-40
2023/10/22 06:17:06;;;;;;;9.67;5.70;;;;;;;;;;5003413;28;20058;-39
2023/10/22 06:19:31;;;;;;;12.75;5.95;;;;;;;;;;5010085;28;20323;-39
2023/10/22 06:21:56;;;;;;;8.53;4.57;;;;;;;;;;5002276;28;20132;-39
2023/10/22 06:24:21;;;;;;;10.40;5.43;;;;;;;;;;5005653;28;20284;-39
2023/10/22 06:26:47;;;;;;;9.25;5.20;;;;;;;;;;5006744;28;20268;-40
2023/10/22 06:29:12;;;;;;;9.18;5.65;;;;;;;;;;5005276;28;20025;-39
2023/10/22 06:31:37;;;;;;;10.30;5.90;;;;;;;;;;5003564;28;20069;-40
2023/10/22 06:34:02;;;;;;;9.43;6.10;;;;;;;;;;5001854;28;20292;-39
2023/10/22 06:36:28;;;;;;;9.40;5.23;;;;;;;;;;5004394;28;20277;-40
2023/10/22 06:38:53;;;;;;;11.67;6.67;;;;;;;;;;5005616;28;20343;-39
2023/10/22 06:41:22;;;;;;;18.58;8.43;;;;;;;;;;5006680;28;20268;-39
2023/10/22 06:43:47;;;;;;;13.30;7.13;;;;;;;;;;4997380;28;20028;-40
2023/10/22 06:46:13;;;;;;;11.13;7.03;;;;;;;;;;5001993;28;20037;-39
2023/10/22 06:48:39;;;;;;;13.35;7.95;;;;;;;;;;5000930;28;20683;-39
2023/10/22 06:51:09;;;;;;;12.73;7.72;;;;;;;;;;5002913;28;21143;-39
2023/10/22 06:53:34;;;;;;;13.85;7.78;;;;;;;;;;4997045;28;20040;-37
2023/10/22 06:56:01;;;;;;;13.90;6.32;;;;;;;;;;4999929;28;20019;-45
2023/10/22 06:58:27;;;;;;;11.30;6.57;;;;;;;;;;5004856;28;20088;-42
2023/10/22 07:00:54;;;;;;;11.87;7.27;;;;;;;;;;4986534;28;20022;-40
2023/10/22 07:03:19;;;;;;;12.18;7.22;;;;;;;;;;5004644;28;20272;-40
2023/10/22 07:05:44;;;;;;;13.23;7.28;;;;;;;;;;5010065;28;20026;-40
2023/10/22 07:08:10;;;;;;;13.50;6.70;;;;;;;;;;5006617;28;20480;-42
2023/10/22 07:10:35;;;;;;;10.37;6.43;;;;;;;;;;4997799;28;20101;-39
2023/10/22 07:13:01;;;;;;;13.70;8.90;;;;;;;;;;5001756;28;20268;-40
2023/10/22 07:15:26;;;;;;;23.95;13.70;;;;;;;;;;5004007;28;20030;-39
2023/10/22 07:17:51;;;;;;;23.25;13.73;;;;;;;;;;5009230;28;20096;-42
2023/10/22 07:20:17;;;;;;;16.30;9.00;;;;;;;;;;5007170;28;20121;-40
2023/10/22 07:22:43;;;;;;;12.55;6.95;;;;;;;;;;5009317;28;20030;-40
2023/10/22 07:25:08;;;;;;;11.65;6.25;;;;;;;;;;5008564;28;20100;-40
2023/10/22 07:27:33;;;;;;;10.27;6.17;;;;;;;;;;5004979;28;20053;-41
2023/10/22 07:29:58;;;;;;;12.53;7.83;;;;;;;;;;4997773;28;20308;-41
2023/10/22 07:32:23;;;;;;;15.83;8.07;;;;;;;;;;5009719;28;20300;-40
2023/10/22 07:34:49;;;;;;;15.70;7.63;;;;;;;;;;5011487;28;20843;-41
2023/10/22 07:37:14;;;;;;;9.77;5.83;;;;;;;;;;5005451;28;20320;-41
2023/10/22 07:39:39;;;;;;;13.13;7.20;;;;;;;;;;5008264;28;20361;-40
2023/10/22 07:42:05;;;;;;;9.60;5.28;;;;;;;;;;5011418;28;20617;-40
2023/10/22 07:44:30;;;;;;;21.55;12.98;;;;;;;;;;5000931;28;20503;-42
2023/10/22 07:46:55;;;;;;;24.40;12.38;;;;;;;;;;5002193;28;20137;-40
2023/10/22 07:49:21;;;;;;;15.13;8.30;;;;;;;;;;5006083;28;20508;-41
2023/10/22 07:51:46;;;;;;;9.03;4.93;;;;;;;;;;4990516;28;20282;-40
2023/10/22 07:54:12;;;;;;;8.60;4.87;;;;;;;;;;5001687;28;20327;-42
2023/10/22 07:56:37;;;;;;;15.98;8.98;;;;;;;;;;5002158;28;20288;-39
2023/10/22 07:59:02;;;;;;;14.98;8.85;;;;;;;;;;5000281;28;20090;-41
2023/10/22 08:01:28;;;;;;;12.80;7.83;;;;;;;;;;4999716;28;20022;-39
2023/10/22 08:03:53;;;;;;;9.40;6.07;;;;;;;;;;4972354;28;20303;-41
2023/10/22 08:06:19;;;;;;;10.55;6.70;;;;;;;;;;5001984;28;20481;-39
2023/10/22 08:08:44;;;;;;;10.48;5.88;;;;;;;;;;5002236;28;20507;-39
2023/10/22 08:11:09;;;;;;;12.73;7.40;;;;;;;;;;4997771;28;20125;-39
2023/10/22 08:13:34;;;;;;;11.63;6.63;;;;;;;;;;4992721;28;20705;-40
2023/10/22 08:16:04;;;;;;;13.35;7.72;;;;;;;;;;4996241;28;20105;-40
2023/10/22 08:18:29;;;;;;;24.00;12.20;;;;;;;;;;5003571;28;20025;-39
2023/10/22 08:21:00;;;;;;;14.13;8.23;;;;;;;;;;5001947;28;20091;-40
2023/10/22 08:23:25;;;;;;;12.52;6.65;;;;;;;;;;5008350;28;20882;-40
2023/10/22 08:25:51;;;;;;;7.93;4.80;;;;;;;;;;5005866;28;20539;-39
2023/10/22 08:28:16;;;;;;;8.38;5.15;;;;;;;;;;5004111;28;20275;-41
2023/10/22 08:30:48;;;;;;;8.15;5.30;;;;;;;;;;5003436;28;20081;-40
2023/10/22 08:33:13;;;;;;;9.85;5.05;;;;;;;;;;5004561;28;20052;-40
2023/10/22 08:35:39;;;;;;;8.75;4.78;;;;;;;;;;5000701;28;20499;-40
2023/10/22 08:38:04;;;;;;;9.40;5.40;;;;;;;;;;4997346;28;20025;-39
2023/10/22 08:40:29;;;;;;;14.30;10.43;;;;;;;;;;4997310;28;20027;-43
2023/10/22 08:42:56;;;;;;;18.45;11.75;;;;;;;;;;5005287;28;20374;-41
2023/10/22 08:45:22;;;;;;;21.65;13.38;;;;;;;;;;4990125;28;20029;-40
2023/10/22 08:47:47;;;;;;;25.20;15.32;;;;;;;;;;5004693;28;20029;-39
2023/10/22 08:50:15;;;;;;;24.05;15.02;;;;;;;;;;4986061;28;20026;-40
2023/10/22 08:52:40;;;;;;;11.68;7.82;;;;;;;;;;5008365;28;20045;-40
2023/10/22 08:55:07;;;;;;;12.53;7.43;;;;;;;;;;5002960;28;20030;-39
2023/10/22 08:57:32;;;;;;;12.48;7.68;;;;;;;;;;5001906;28;20281;-38
2023/10/22 08:59:57;;;;;;;9.40;6.00;;;;;;;;;;5005077;28;20056;-42
2023/10/22 09:02:26;;;;;;;8.97;5.63;;;;;;;;;;5002471;28;20472;-39
2023/10/22 09:04:55;;;;;;;12.68;7.47;;;;;;;;;;4988128;28;20273;-40
2023/10/22 09:07:40;;;;;;;25.30;13.07;;;;;;;;;;4979494;28;20022;-41
2023/10/22 09:10:22;;;;;;;12.88;9.55;;;;;;;;;;5005097;28;20033;-40
2023/10/22 09:12:47;;;;;;;15.27;9.10;;;;;;;;;;5006180;28;20048;-45
2023/10/22 09:15:13;;;;;;;13.75;7.35;;;;;;;;;;4981366;28;20045;-40
2023/10/22 09:17:38;;;;;;;13.98;7.45;;;;;;;;;;5000048;28;20045;-41
2023/10/22 09:20:19;;;;;;;10.77;7.47;;;;;;;;;;4993780;28;20018;-38
2023/10/22 09:22:44;;;;;;;10.23;5.68;;;;;;;;;;5000319;28;20364;-43
2023/10/22 09:25:10;;;;;;;9.30;4.72;;;;;;;;;;4987047;28;20038;-40
2023/10/22 09:27:35;;;;;;;9.23;4.68;;;;;;;;;;4980400;28;20033;-42
2023/10/22 09:30:02;;;;;;;10.27;6.13;;;;;;;;;;4989419;28;20049;-41
2023/10/22 09:32:27;;;;;;;7.22;3.40;;;;;;;;;;5002354;28;20559;-38
2023/10/22 09:34:52;;;;;;;4.15;2.40;;;;;;;;;;5001619;28;20228;-38
2023/10/22 09:37:18;;;;;;;3.40;2.20;;;;;;;;;;5000781;28;20033;-38
2023/10/22 09:39:44;;;;;;;3.22;2.10;;;;;;;;;;4998925;28;21630;-39
2023/10/22 09:42:10;;;;;;;3.65;1.52;;;;;;;;;;5002496;28;20052;-38
2023/10/22 09:44:37;;;;;;;4.65;2.45;;;;;;;;;;4999519;28;20042;-39
2023/10/22 09:47:03;;;;;;;5.70;2.03;;;;;;;;;;4996348;28;20686;-39
2023/10/22 09:49:33;;;;;;;3.58;1.90;;;;;;;;;;5000425;28;20034;-38
2023/10/22 09:51:59;;;;;;;4.13;2.08;;;;;;;;;;4999995;28;20018;-38
2023/10/22 09:54:30;;;;;;;6.75;1.83;;;;;;;;;;4999950;28;20069;-38
2023/10/22 09:56:57;;;;;;;6.90;3.00;;;;;;;;;;4999532;28;20049;-40
2023/10/22 09:59:23;;;;;;;7.55;3.72;;;;;;;;;;5000693;28;20018;-40
2023/10/22 10:01:52;;;;;;;3.50;1.90;;;;;;;;;;4999223;28;20034;-40
2023/10/22 10:04:19;;;;;;;3.58;2.65;;;;;;;;;;5003119;28;20030;-41
2023/10/22 10:06:45;;;;;;;3.20;1.83;;;;;;;;;;5003476;28;20080;-39
2023/10/22 10:09:10;;;;;;;5.65;2.97;;;;;;;;;;4997626;28;20025;-40
2023/10/22 10:11:36;;;;;;;9.63;2.78;;;;;;;;;;5002678;28;20493;-39
2023/10/22 10:14:34;;;;;;;4.43;1.77;;;;;;;;;;4988557;28;20026;-38
2023/10/22 10:17:02;;;;;;;6.10;2.70;;;;;;;;;;5001747;28;20029;-40
2023/10/22 10:19:27;;;;;;;3.05;1.55;;;;;;;;;;5001630;28;20021;-39
2023/10/22 10:21:53;;;;;;;4.15;1.50;;;;;;;;;;5002954;28;20254;-38
2023/10/22 10:24:25;;;;;;;4.18;1.48;;;;;;;;;;4998503;28;20061;-38
2023/10/22 10:26:50;;;;;;;3.78;1.85;;;;;;;;;;4997911;28;20417;-38
2023/10/22 10:29:26;;;;;;;3.08;1.77;;;;;;;;;;4998888;28;20581;-39
2023/10/22 10:31:52;;;;;;;4.38;1.67;;;;;;;;;;4999893;28;20033;-39
2023/10/22 10:34:21;;;;;;;3.22;1.50;;;;;;;;;;4996003;28;20404;-38
2023/10/22 10:36:47;;;;;;;3.78;1.60;;;;;;;;;;4985608;28;20022;-39
2023/10/22 10:39:31;;;;;;;3.28;1.55;;;;;;;;;;5006092;28;20112;-39
2023/10/22 10:41:57;;;;;;;6.53;2.00;;;;;;;;;;4997533;28;20154;-40
2023/10/22 10:44:22;;;;;;;4.35;2.08;;;;;;;;;;5007917;28;20590;-40
2023/10/22 10:46:47;;;;;;;4.37;1.43;;;;;;;;;;4988761;28;20033;-39
2023/10/22 10:49:13;;;;;;;5.67;1.47;;;;;;;;;;4993574;28;20041;-41
2023/10/22 10:51:57;;;;;;;3.42;1.05;;;;;;;;;;5005775;28;20316;-39
2023/10/22 10:54:22;;;;;;;4.25;1.60;;;;;;;;;;5001983;28;20030;-40
2023/10/22 10:56:49;;;;;;;2.97;1.33;;;;;;;;;;5009132;28;20029;-41
2023/10/22 10:59:43;;;;;;;3.30;1.17;;;;;;;;;;5005304;28;21008;-40
2023/10/22 11:02:10;;;;;;;4.43;1.10;;;;;;;;;;4990391;28;20383;-39
2023/10/22 11:04:37;;;;;;;2.17;0.95;;;;;;;;;;5009224;28;20033;-40
2023/10/22 11:07:02;;;;;;;3.72;1.20;;;;;;;;;;5005474;28;20028;-39
2023/10/22 11:09:30;;;;;;;1.45;0.60;;;;;;;;;;5009657;28;20022;-39
2023/10/22 11:11:55;;;;;;;1.98;1.00;;;;;;;;;;5009615;28;20030;-39
2023/10/22 11:14:20;;;;;;;18.33;7.83;;;;;;;;;;5001777;28;20028;-39
2023/10/22 11:16:56;;;;;;;4.77;2.53;;;;;;;;;;5005750;28;20633;-39
2023/10/22 11:19:26;;;;;;;3.38;1.05;;;;;;;;;;5004808;28;20352;-40
2023/10/22 11:21:51;;;;;;;3.53;1.30;;;;;;;;;;5006600;28;20718;-39
2023/10/22 11:24:18;;;;;;;4.57;1.48;;;;;;;;;;5002832;28;20037;-39
2023/10/22 11:26:43;;;;;;;2.30;1.02;;;;;;;;;;5007731;28;20084;-39
2023/10/22 11:29:09;;;;;;;8.88;1.20;;;;;;;;;;5007087;28;20025;-39
2023/10/22 11:31:34;;;;;;;3.33;1.45;;;;;;;;;;5002067;28;20033;-40
2023/10/22 11:34:13;;;;;;;3.80;1.10;;;;;;;;;;5005181;28;20030;-40
2023/10/22 11:36:38;;;;;;;10.27;2.50;;;;;;;;;;5001299;28;20100;-38
2023/10/22 11:39:13;;;;;;;3.60;1.30;;;;;;;;;;5007406;28;20155;-40
2023/10/22 11:41:39;;;;;;;6.00;1.30;;;;;;;;;;5008717;28;20562;-40
2023/10/22 11:44:05;;;;;;;4.00;1.50;;;;;;;;;;5005915;28;20057;-39
2023/10/22 11:46:41;;;;;;;4.93;1.58;;;;;;;;;;4999844;28;20022;-37
2023/10/22 11:49:06;;;;;;;2.45;1.35;;;;;;;;;;5004069;28;20029;-39
2023/10/22 11:51:41;;;;;;;5.23;1.90;;;;;;;;;;5005234;28;20025;-39
2023/10/22 11:54:06;;;;;;;4.35;1.50;;;;;;;;;;5000482;28;20810;-39
2023/10/22 11:56:31;;;;;;;3.63;1.60;;;;;;;;;;5004897;28;20060;-41
2023/10/22 11:58:57;;;;;;;2.90;1.50;;;;;;;;;;5003189;28;20288;-39
2023/10/22 12:01:22;;;;;;;3.75;1.70;;;;;;;;;;5001846;28;20271;-39
2023/10/22 12:03:47;;;;;;;4.17;2.07;;;;;;;;;;5005856;28;20030;-40
2023/10/22 12:06:12;;;;;;;6.07;1.70;;;;;;;;;;5002941;28;20671;-39
2023/10/22 12:08:38;;;;;;;3.03;1.70;;;;;;;;;;5002573;28;20030;-39
2023/10/22 12:11:03;;;;;;;4.53;1.87;;;;;;;;;;5000883;28;20277;-39
2023/10/22 12:13:28;;;;;;;3.40;1.77;;;;;;;;;;5006127;28;20683;-41
2023/10/22 12:15:53;;;;;;;1.57;1.07;;;;;;;;;;5003577;28;20014;-39
2023/10/22 12:18:19;;;;;;;6.30;1.50;;;;;;;;;;5002586;28;20261;-39
2023/10/22 12:20:44;;;;;;;3.17;1.60;;;;;;;;;;5002738;28;20583;-40
2023/10/22 12:23:11;;;;;;;3.57;1.63;;;;;;;;;;4997917;28;20273;-39
2023/10/22 12:25:36;;;;;;;3.10;1.63;;;;;;;;;;5003302;28;20768;-40
2023/10/22 12:28:01;;;;;;;3.70;1.77;;;;;;;;;;5001834;28;20045;-39
2023/10/22 12:30:27;;;;;;;5.13;2.30;;;;;;;;;;4998772;28;20292;-40
2023/10/22 12:32:52;;;;;;;6.50;2.22;;;;;;;;;;5002555;28;20289;-41
2023/10/22 12:35:17;;;;;;;4.90;1.75;;;;;;;;;;5001856;28;20512;-40
2023/10/22 12:37:43;;;;;;;6.78;3.03;;;;;;;;;;5002492;28;20084;-40
2023/10/22 12:40:09;;;;;;;6.37;2.17;;;;;;;;;;5004741;28;20101;-39
2023/10/22 12:42:36;;;;;;;8.85;3.80;;;;;;;;;;5002623;28;20330;-39
2023/10/22 12:45:02;;;;;;;3.90;2.03;;;;;;;;;;5000375;28;20021;-41
2023/10/22 12:47:27;;;;;;;5.50;1.90;;;;;;;;;;5005056;28;20034;-38
2023/10/22 12:49:52;;;;;;;3.88;1.90;;;;;;;;;;5001547;28;20029;-40
2023/10/22 12:52:18;;;;;;;5.20;2.00;;;;;;;;;;4997642;28;20468;-40
2023/10/22 12:54:44;;;;;;;5.45;2.35;;;;;;;;;;4995749;28;20296;-38
2023/10/22 12:57:12;;;;;;;3.65;1.80;;;;;;;;;;4999896;28;20060;-40
2023/10/22 12:59:39;;;;;;;4.57;2.25;;;;;;;;;;5001168;28;20440;-40
2023/10/22 13:02:04;;;;;;;4.00;2.08;;;;;;;;;;4994265;28;20026;-39
2023/10/22 13:04:29;;;;;;;8.25;4.75;;;;;;;;;;4998568;28;20072;-40
2023/10/22 13:06:55;;;;;;;7.05;2.90;;;;;;;;;;5002287;28;20537;-41
2023/10/22 13:09:20;;;;;;;6.57;2.63;;;;;;;;;;5002641;28;20031;-39
2023/10/22 13:11:45;;;;;;;3.85;1.85;;;;;;;;;;5006544;28;20034;-39
2023/10/22 13:14:11;;;;;;;3.80;2.07;;;;;;;;;;4984928;28;20022;-39
2023/10/22 13:16:36;;;;;;;4.37;1.67;;;;;;;;;;5004929;28;20711;-40
2023/10/22 13:19:02;;;;;;;2.53;1.50;;;;;;;;;;5004395;28;20322;-39
2023/10/22 13:21:27;;;;;;;6.53;2.00;;;;;;;;;;5004186;28;20281;-41
2023/10/22 13:23:53;;;;;;;4.60;1.80;;;;;;;;;;5003012;28;20018;-39
2023/10/22 13:26:18;;;;;;;4.60;2.33;;;;;;;;;;5004834;28;20026;-40
2023/10/22 13:28:43;;;;;;;5.10;2.53;;;;;;;;;;5004904;28;20756;-40
2023/10/22 13:31:13;;;;;;;9.48;5.55;;;;;;;;;;5000443;28;20288;-42
2023/10/22 13:33:38;;;;;;;12.00;4.60;;;;;;;;;;5003713;28;20122;-39
2023/10/22 13:36:04;;;;;;;6.32;2.92;;;;;;;;;;5000686;28;20022;-40
2023/10/22 13:38:30;;;;;;;5.85;1.90;;;;;;;;;;5006851;28;20081;-41
2023/10/22 13:40:55;;;;;;;4.70;1.70;;;;;;;;;;5005205;28;20022;-40
2023/10/22 13:43:20;;;;;;;3.00;1.50;;;;;;;;;;5001385;28;20108;-39
2023/10/22 13:45:46;;;;;;;2.83;1.42;;;;;;;;;;4997838;28;20034;-40
2023/10/22 13:48:11;;;;;;;3.17;1.70;;;;;;;;;;5000536;28;20465;-40
2023/10/22 13:50:37;;;;;;;8.57;2.80;;;;;;;;;;4999121;28;20495;-40
2023/10/22 13:53:02;;;;;;;3.20;1.45;;;;;;;;;;4979484;28;20273;-37
2023/10/22 13:55:27;;;;;;;8.60;3.33;;;;;;;;;;4999457;28;20026;-38
2023/10/22 13:57:56;;;;;;;3.53;1.52;;;;;;;;;;4998955;28;20026;-39
2023/10/22 14:00:21;;;;;;;9.38;1.63;;;;;;;;;;4985999;28;20034;-39
2023/10/22 14:02:47;;;;;;;6.50;1.88;;;;;;;;;;5001469;28;20032;-40
2023/10/22 14:05:12;;;;;;;7.05;1.92;;;;;;;;;;4976866;28;20022;-42
2023/10/22 14:07:39;;;;;;;3.80;1.83;;;;;;;;;;4998172;28;20030;-38
2023/10/22 14:10:05;;;;;;;6.55;2.17;;;;;;;;;;4996992;28;20457;-40
2023/10/22 14:12:30;;;;;;;3.83;2.10;;;;;;;;;;5003794;28;20488;-40
2023/10/22 14:14:56;;;;;;;7.10;2.65;;;;;;;;;;5004255;28;20042;-39
2023/10/22 14:17:22;;;;;;;9.85;3.42;;;;;;;;;;5002069;28;20033;-41
2023/10/22 14:19:51;;;;;;;5.53;2.80;;;;;;;;;;4999387;28;20034;-38
2023/10/22 14:22:16;;;;;;;6.47;2.58;;;;;;;;;;4998979;28;20269;-41
2023/10/22 14:24:41;;;;;;;8.60;2.07;;;;;;;;;;4997059;28;20088;-39
2023/10/22 14:27:07;;;;;;;3.57;2.03;;;;;;;;;;4993678;28;20034;-38
2023/10/22 14:29:33;;;;;;;5.65;2.30;;;;;;;;;;5003134;28;20935;-40
2023/10/22 14:31:58;;;;;;;10.07;2.40;;;;;;;;;;5003778;28;20572;-39